sensor_id;sensor_type;location;lat;lon;timestamp;pressure;altitude;pressure_sealevel;temperature;humidity
77279;BME280;66332;50.436;15.378;2023-02-11T05:01:09;99692.72;;;-3.90;85.75
77279;BME280;66332;50.436;15.378;2023-02-11T05:05:50;99699.13;;;-4.02;85.48
77279;BME280;66332;50.436;15.378;2023-02-11T05:10:31;99690.53;;;-4.01;85.87
77279;BME280;66332;50.436;15.378;2023-02-11T05:15:12;99702.78;;;-3.84;85.63
77279;BME280;66332;50.436;15.378;2023-02-11T05:19:53;99692.88;;;-3.70;85.21
77279;BME280;66332;50.436;15.378;2023-02-11T05:24:34;99695.63;;;-3.74;85.46
77279;BME280;66332;50.436;15.378;2023-02-11T05:29:15;99687.28;;;-3.56;84.89
77279;BME280;66332;50.436;15.378;2023-02-11T05:33:56;99689.84;;;-3.56;85.13
77279;BME280;66332;50.436;15.378;2023-02-11T05:38:39;99695.94;;;-3.58;86.41
77279;BME280;66332;50.436;15.378;2023-02-11T05:43:20;99689.72;;;-3.53;86.92
77279;BME280;66332;50.436;15.378;2023-02-11T05:48:04;99688.06;;;-3.30;86.15
77279;BME280;66332;50.436;15.378;2023-02-11T05:52:45;99700.53;;;-3.19;86.05
77279;BME280;66332;50.436;15.378;2023-02-11T05:57:26;99690.56;;;-3.29;86.09
77279;BME280;66332;50.436;15.378;2023-02-11T06:02:09;99701.13;;;-3.36;86.36
77279;BME280;66332;50.436;15.378;2023-02-11T06:06:51;99675.38;;;-3.58;87.43
77279;BME280;66332;50.436;15.378;2023-02-11T06:11:32;99672.34;;;-3.46;87.14
77279;BME280;66332;50.436;15.378;2023-02-11T06:16:13;99686.56;;;-3.14;86.90
77279;BME280;66332;50.436;15.378;2023-02-11T06:20:54;99667.50;;;-3.08;86.07
77279;BME280;66332;50.436;15.378;2023-02-11T06:25:35;99688.06;;;-2.85;86.08
77279;BME280;66332;50.436;15.378;2023-02-11T06:30:22;99663.72;;;-2.98;85.01
77279;BME280;66332;50.436;15.378;2023-02-11T06:35:07;99676.88;;;-2.84;85.59
77279;BME280;66332;50.436;15.378;2023-02-11T06:39:52;99695.47;;;-2.77;85.79
77279;BME280;66332;50.436;15.378;2023-02-11T06:44:33;99687.75;;;-2.77;85.37
77279;BME280;66332;50.436;15.378;2023-02-11T06:49:13;99695.34;;;-2.74;86.18
77279;BME280;66332;50.436;15.378;2023-02-11T06:53:54;99672.44;;;-2.80;85.21
77279;BME280;66332;50.436;15.378;2023-02-11T06:58:35;99703.88;;;-2.72;86.04
77279;BME280;66332;50.436;15.378;2023-02-11T07:03:17;99697.88;;;-2.72;85.43
77279;BME280;66332;50.436;15.378;2023-02-11T07:07:58;99672.50;;;-2.60;85.36
77279;BME280;66332;50.436;15.378;2023-02-11T07:12:39;99678.22;;;-2.53;84.44
77279;BME280;66332;50.436;15.378;2023-02-11T07:17:20;99680.78;;;-2.73;85.79
77279;BME280;66332;50.436;15.378;2023-02-11T07:22:01;99683.09;;;-2.67;85.92
77279;BME280;66332;50.436;15.378;2023-02-11T07:26:42;99691.03;;;-2.29;84.33
77279;BME280;66332;50.436;15.378;2023-02-11T07:31:26;99687.41;;;-2.25;84.25
77279;BME280;66332;50.436;15.378;2023-02-11T07:36:09;99678.19;;;-2.09;83.68
77279;BME280;66332;50.436;15.378;2023-02-11T07:40:50;99679.38;;;-2.18;83.17
77279;BME280;66332;50.436;15.378;2023-02-11T07:45:31;99682.22;;;-2.24;84.34
77279;BME280;66332;50.436;15.378;2023-02-11T07:50:12;99698.34;;;-2.41;84.64
77279;BME280;66332;50.436;15.378;2023-02-11T07:54:52;99690.78;;;-2.23;84.67
77279;BME280;66332;50.436;15.378;2023-02-11T07:59:33;99668.03;;;-2.14;82.99
77279;BME280;66332;50.436;15.378;2023-02-11T08:04:14;99685.94;;;-2.11;83.57
77279;BME280;66332;50.436;15.378;2023-02-11T08:08:55;99686.91;;;-2.13;84.66
77279;BME280;66332;50.436;15.378;2023-02-11T08:13:39;99685.66;;;-2.03;84.01
77279;BME280;66332;50.436;15.378;2023-02-11T08:18:20;99683.91;;;-2.02;83.67
77279;BME280;66332;50.436;15.378;2023-02-11T08:23:02;99670.31;;;-2.06;84.68
77279;BME280;66332;50.436;15.378;2023-02-11T08:27:45;99672.50;;;-2.17;84.92
77279;BME280;66332;50.436;15.378;2023-02-11T08:32:26;99660.75;;;-2.04;84.37
77279;BME280;66332;50.436;15.378;2023-02-11T08:37:07;99686.34;;;-1.79;84.46
77279;BME280;66332;50.436;15.378;2023-02-11T08:41:51;99673.13;;;-1.71;83.41
77279;BME280;66332;50.436;15.378;2023-02-11T08:46:33;99680.84;;;-1.71;84.84
77279;BME280;66332;50.436;15.378;2023-02-11T08:51:17;99691.94;;;-1.69;84.59
77279;BME280;66332;50.436;15.378;2023-02-11T08:55:59;99658.84;;;-1.78;83.78
77279;BME280;66332;50.436;15.378;2023-02-11T09:00:40;99682.97;;;-1.60;82.92
77279;BME280;66332;50.436;15.378;2023-02-11T09:05:23;99674.16;;;-1.55;83.37
77279;BME280;66332;50.436;15.378;2023-02-11T09:10:08;99697.44;;;-1.38;83.54
77279;BME280;66332;50.436;15.378;2023-02-11T09:14:49;99671.59;;;-1.17;82.07
77279;BME280;66332;50.436;15.378;2023-02-11T09:19:30;99675.41;;;-1.07;81.87
77279;BME280;66332;50.436;15.378;2023-02-11T09:24:10;99651.97;;;-0.83;80.36
77279;BME280;66332;50.436;15.378;2023-02-11T09:28:53;99661.97;;;-0.41;80.24
77279;BME280;66332;50.436;15.378;2023-02-11T09:33:35;99664.34;;;-0.36;79.95
77279;BME280;66332;50.436;15.378;2023-02-11T09:38:16;99685.31;;;-0.25;79.90
77279;BME280;66332;50.436;15.378;2023-02-11T09:48:03;99698.41;;;-0.11;79.40
77279;BME280;66332;50.436;15.378;2023-02-11T09:57:57;99697.25;;;0.30;77.80
77279;BME280;66332;50.436;15.378;2023-02-11T10:07:36;99681.81;;;0.11;79.45
77279;BME280;66332;50.436;15.378;2023-02-11T10:17:24;99641.44;;;0.75;77.91
77279;BME280;66332;50.436;15.378;2023-02-11T10:22:24;99634.91;;;0.67;80.08
77279;BME280;66332;50.436;15.378;2023-02-11T10:27:15;99624.41;;;0.86;79.56
77279;BME280;66332;50.436;15.378;2023-02-11T10:31:58;99620.03;;;1.03;78.74
77279;BME280;66332;50.436;15.378;2023-02-11T10:36:42;99614.50;;;1.25;79.33
77279;BME280;66332;50.436;15.378;2023-02-11T10:41:32;99617.63;;;1.46;78.00
77279;BME280;66332;50.436;15.378;2023-02-11T10:46:21;99603.97;;;2.45;77.85
77279;BME280;66332;50.436;15.378;2023-02-11T10:51:14;99615.81;;;2.06;76.32
77279;BME280;66332;50.436;15.378;2023-02-11T10:55:55;99591.53;;;1.93;76.82
77279;BME280;66332;50.436;15.378;2023-02-11T11:00:39;99610.53;;;1.94;77.29
77279;BME280;66332;50.436;15.378;2023-02-11T11:05:27;99625.44;;;1.90;77.30
77279;BME280;66332;50.436;15.378;2023-02-11T11:10:33;99616.28;;;1.99;76.78
77279;BME280;66332;50.436;15.378;2023-02-11T11:15:25;99655.38;;;1.96;76.70
77279;BME280;66332;50.436;15.378;2023-02-11T11:24:54;99643.09;;;2.14;75.93
77279;BME280;66332;50.436;15.378;2023-02-11T11:29:45;99641.97;;;1.73;78.13
77279;BME280;66332;50.436;15.378;2023-02-11T11:34:39;99630.44;;;1.93;77.60
77279;BME280;66332;50.436;15.378;2023-02-11T11:39:27;99605.50;;;1.76;78.08
77279;BME280;66332;50.436;15.378;2023-02-11T11:44:27;99607.91;;;1.65;79.26
77279;BME280;66332;50.436;15.378;2023-02-11T11:54:03;99605.47;;;1.62;79.65
77279;BME280;66332;50.436;15.378;2023-02-11T11:58:46;99605.06;;;1.54;80.24
77279;BME280;66332;50.436;15.378;2023-02-11T12:18:52;99606.41;;;1.75;79.44
77279;BME280;66332;50.436;15.378;2023-02-11T12:58:13;99563.47;;;1.86;79.20
77279;BME280;66332;50.436;15.378;2023-02-11T13:07:49;99560.03;;;1.71;80.47
77279;BME280;66332;50.436;15.378;2023-02-11T13:12:32;99557.72;;;1.80;80.25
77279;BME280;66332;50.436;15.378;2023-02-11T13:17:42;99556.22;;;1.76;81.01
77279;BME280;66332;50.436;15.378;2023-02-11T13:22:33;99561.03;;;1.82;81.19
77279;BME280;66332;50.436;15.378;2023-02-11T13:27:56;99552.91;;;1.89;80.36
77279;BME280;66332;50.436;15.378;2023-02-11T13:37:37;99535.31;;;1.79;81.26
77279;BME280;66332;50.436;15.378;2023-02-11T13:42:19;99548.94;;;1.83;80.36
77279;BME280;66332;50.436;15.378;2023-02-11T13:47:03;99558.00;;;1.90;80.89
77279;BME280;66332;50.436;15.378;2023-02-11T13:51:45;99539.31;;;1.99;80.54
77279;BME280;66332;50.436;15.378;2023-02-11T13:56:36;99539.41;;;1.83;81.11
77279;BME280;66332;50.436;15.378;2023-02-11T14:06:26;99543.94;;;2.09;80.31
77279;BME280;66332;50.436;15.378;2023-02-11T14:16:13;99545.13;;;2.03;80.76
77279;BME280;66332;50.436;15.378;2023-02-11T14:21:09;99550.13;;;2.06;80.39
77279;BME280;66332;50.436;15.378;2023-02-11T14:26:01;99561.66;;;2.16;79.99
77279;BME280;66332;50.436;15.378;2023-02-11T14:30:59;99557.47;;;1.99;81.34
77279;BME280;66332;50.436;15.378;2023-02-11T14:41:18;99549.38;;;2.33;81.02
77279;BME280;66332;50.436;15.378;2023-02-11T14:46:01;99551.72;;;2.64;79.71
77279;BME280;66332;50.436;15.378;2023-02-11T14:50:58;99530.06;;;2.51;79.79
77279;BME280;66332;50.436;15.378;2023-02-11T14:55:42;99545.47;;;2.54;80.24
77279;BME280;66332;50.436;15.378;2023-02-11T15:00:24;99531.22;;;2.47;80.42
77279;BME280;66332;50.436;15.378;2023-02-11T15:09:55;99536.97;;;2.38;81.54
77279;BME280;66332;50.436;15.378;2023-02-11T15:14:38;99532.72;;;2.08;83.20
77279;BME280;66332;50.436;15.378;2023-02-11T15:19:36;99551.09;;;2.19;84.28
77279;BME280;66332;50.436;15.378;2023-02-11T15:24:44;99562.06;;;1.94;85.82
77279;BME280;66332;50.436;15.378;2023-02-11T15:29:52;99560.03;;;1.85;86.38
77279;BME280;66332;50.436;15.378;2023-02-11T15:34:33;99544.63;;;1.53;87.45
77279;BME280;66332;50.436;15.378;2023-02-11T15:39:28;99542.66;;;1.43;88.44
77279;BME280;66332;50.436;15.378;2023-02-11T15:44:29;99562.03;;;1.51;89.49
77279;BME280;66332;50.436;15.378;2023-02-11T15:49:16;99547.22;;;1.53;89.20
77279;BME280;66332;50.436;15.378;2023-02-11T15:54:15;99548.09;;;1.68;88.93
77279;BME280;66332;50.436;15.378;2023-02-11T15:58:58;99557.72;;;1.95;89.46
77279;BME280;66332;50.436;15.378;2023-02-11T16:03:41;99552.38;;;1.83;90.82
77279;BME280;66332;50.436;15.378;2023-02-11T16:08:26;99556.63;;;1.99;90.06
77279;BME280;66332;50.436;15.378;2023-02-11T16:17:50;99551.34;;;2.15;89.12
77279;BME280;66332;50.436;15.378;2023-02-11T16:22:31;99558.56;;;1.81;89.62
77279;BME280;66332;50.436;15.378;2023-02-11T16:27:23;99570.84;;;1.63;90.50
77279;BME280;66332;50.436;15.378;2023-02-11T16:32:17;99572.00;;;1.43;91.11
77279;BME280;66332;50.436;15.378;2023-02-11T16:37:02;99558.47;;;1.38;91.39
77279;BME280;66332;50.436;15.378;2023-02-11T16:41:43;99554.22;;;1.37;91.39
77279;BME280;66332;50.436;15.378;2023-02-11T16:46:24;99555.13;;;1.36;92.04
77279;BME280;66332;50.436;15.378;2023-02-11T16:51:09;99551.84;;;1.18;91.59
77279;BME280;66332;50.436;15.378;2023-02-11T16:55:51;99567.00;;;1.40;91.79
77279;BME280;66332;50.436;15.378;2023-02-11T17:00:33;99578.72;;;1.31;92.08
77279;BME280;66332;50.436;15.378;2023-02-11T17:05:17;99593.28;;;1.34;92.35
77279;BME280;66332;50.436;15.378;2023-02-11T17:09:59;99598.09;;;1.40;92.21
77279;BME280;66332;50.436;15.378;2023-02-11T17:14:40;99598.94;;;1.71;92.50
77279;BME280;66332;50.436;15.378;2023-02-11T17:19:21;99609.34;;;1.99;91.55
77279;BME280;66332;50.436;15.378;2023-02-11T17:24:02;99617.41;;;2.23;90.83
77279;BME280;66332;50.436;15.378;2023-02-11T17:28:43;99626.88;;;2.39;91.50
77279;BME280;66332;50.436;15.378;2023-02-11T17:33:24;99629.09;;;2.59;90.68
77279;BME280;66332;50.436;15.378;2023-02-11T17:38:05;99624.34;;;2.80;90.61
77279;BME280;66332;50.436;15.378;2023-02-11T17:42:46;99638.69;;;2.86;90.86
77279;BME280;66332;50.436;15.378;2023-02-11T17:47:26;99646.47;;;2.86;90.30
77279;BME280;66332;50.436;15.378;2023-02-11T17:52:08;99644.56;;;2.89;90.36
77279;BME280;66332;50.436;15.378;2023-02-11T17:56:48;99649.41;;;3.08;88.84
77279;BME280;66332;50.436;15.378;2023-02-11T18:01:31;99652.28;;;3.04;89.69
77279;BME280;66332;50.436;15.378;2023-02-11T18:06:12;99646.59;;;2.84;91.22
77279;BME280;66332;50.436;15.378;2023-02-11T18:10:53;99647.63;;;2.82;92.41
77279;BME280;66332;50.436;15.378;2023-02-11T18:15:35;99658.50;;;2.60;92.63
77279;BME280;66332;50.436;15.378;2023-02-11T18:20:16;99650.44;;;2.50;93.57
77279;BME280;66332;50.436;15.378;2023-02-11T18:24:56;99653.56;;;2.55;94.01
77279;BME280;66332;50.436;15.378;2023-02-11T18:29:37;99651.72;;;2.57;93.78
77279;BME280;66332;50.436;15.378;2023-02-11T18:34:18;99651.78;;;2.56;93.97
77279;BME280;66332;50.436;15.378;2023-02-11T18:38:59;99654.31;;;2.57;93.62
77279;BME280;66332;50.436;15.378;2023-02-11T18:43:40;99663.03;;;2.56;93.45
77279;BME280;66332;50.436;15.378;2023-02-11T18:48:22;99667.38;;;2.56;93.25
77279;BME280;66332;50.436;15.378;2023-02-11T18:53:03;99668.69;;;2.63;93.15
77279;BME280;66332;50.436;15.378;2023-02-11T18:57:44;99667.19;;;2.59;93.37
77279;BME280;66332;50.436;15.378;2023-02-11T19:02:25;99651.91;;;2.68;93.37
77279;BME280;66332;50.436;15.378;2023-02-11T19:07:06;99653.81;;;2.79;93.69
77279;BME280;66332;50.436;15.378;2023-02-11T19:11:47;99672.63;;;2.97;92.61
77279;BME280;66332;50.436;15.378;2023-02-11T19:16:33;99667.56;;;2.67;91.97
77279;BME280;66332;50.436;15.378;2023-02-11T19:21:14;99680.09;;;2.74;92.08
77279;BME280;66332;50.436;15.378;2023-02-11T19:25:55;99668.19;;;2.85;92.57
77279;BME280;66332;50.436;15.378;2023-02-11T19:30:36;99675.41;;;2.94;93.25
77279;BME280;66332;50.436;15.378;2023-02-11T19:35:18;99678.84;;;2.94;92.76
77279;BME280;66332;50.436;15.378;2023-02-11T19:39:59;99655.78;;;2.90;92.57
77279;BME280;66332;50.436;15.378;2023-02-11T19:44:40;99689.16;;;2.96;93.19
77279;BME280;66332;50.436;15.378;2023-02-11T19:49:21;99669.66;;;2.89;93.00
77279;BME280;66332;50.436;15.378;2023-02-11T19:54:06;99677.19;;;2.93;92.73
77279;BME280;66332;50.436;15.378;2023-02-11T19:58:47;99673.66;;;2.94;92.38
77279;BME280;66332;50.436;15.378;2023-02-11T20:03:28;99681.38;;;2.82;93.18
77279;BME280;66332;50.436;15.378;2023-02-11T20:08:09;99685.28;;;2.74;94.12
77279;BME280;66332;50.436;15.378;2023-02-11T20:12:51;99689.72;;;2.72;94.37
77279;BME280;66332;50.436;15.378;2023-02-11T20:17:31;99689.91;;;2.69;94.46
77279;BME280;66332;50.436;15.378;2023-02-11T20:22:12;99689.16;;;2.67;94.52
77279;BME280;66332;50.436;15.378;2023-02-11T20:26:53;99707.66;;;2.77;94.82
77279;BME280;66332;50.436;15.378;2023-02-11T20:31:37;99711.16;;;2.76;94.44
77279;BME280;66332;50.436;15.378;2023-02-11T20:36:24;99723.03;;;2.80;94.13
77279;BME280;66332;50.436;15.378;2023-02-11T20:41:07;99727.19;;;2.83;94.48
77279;BME280;66332;50.436;15.378;2023-02-11T20:45:50;99711.72;;;2.81;94.06
77279;BME280;66332;50.436;15.378;2023-02-11T20:50:32;99718.94;;;2.90;94.74
77279;BME280;66332;50.436;15.378;2023-02-11T20:55:13;99732.19;;;3.00;94.59
77279;BME280;66332;50.436;15.378;2023-02-11T20:59:54;99729.78;;;2.97;94.55
77279;BME280;66332;50.436;15.378;2023-02-11T21:04:36;99703.25;;;2.92;94.24
77279;BME280;66332;50.436;15.378;2023-02-11T21:09:22;99734.50;;;3.19;93.74
77279;BME280;66332;50.436;15.378;2023-02-11T21:14:03;99743.97;;;3.20;93.92
77279;BME280;66332;50.436;15.378;2023-02-11T21:18:45;99749.50;;;3.28;93.53
77279;BME280;66332;50.436;15.378;2023-02-11T21:23:26;99753.50;;;3.34;93.02
77279;BME280;66332;50.436;15.378;2023-02-11T21:28:08;99747.94;;;3.26;93.08
77279;BME280;66332;50.436;15.378;2023-02-11T21:32:49;99747.94;;;3.26;93.14
77279;BME280;66332;50.436;15.378;2023-02-11T21:37:30;99773.44;;;3.48;92.90
77279;BME280;66332;50.436;15.378;2023-02-11T21:42:12;99774.16;;;3.50;92.61
77279;BME280;66332;50.436;15.378;2023-02-11T21:46:53;99762.31;;;3.31;93.36
77279;BME280;66332;50.436;15.378;2023-02-11T21:51:34;99783.94;;;3.46;93.03
77279;BME280;66332;50.436;15.378;2023-02-11T21:56:16;99775.59;;;3.41;93.14
77279;BME280;66332;50.436;15.378;2023-02-11T22:00:57;99782.66;;;3.39;93.40
77279;BME280;66332;50.436;15.378;2023-02-11T22:05:40;99755.19;;;3.35;92.98
77279;BME280;66332;50.436;15.378;2023-02-11T22:10:21;99780.50;;;3.31;93.23
77279;BME280;66332;50.436;15.378;2023-02-11T22:15:01;99792.88;;;3.42;92.84
77279;BME280;66332;50.436;15.378;2023-02-11T22:19:42;99794.72;;;3.40;93.05
77279;BME280;66332;50.436;15.378;2023-02-11T22:24:23;99799.00;;;3.41;93.27
77279;BME280;66332;50.436;15.378;2023-02-11T22:29:04;99812.97;;;3.53;92.73
77279;BME280;66332;50.436;15.378;2023-02-11T22:33:46;99809.41;;;3.41;93.36
77279;BME280;66332;50.436;15.378;2023-02-11T22:38:28;99805.31;;;3.37;93.49
77279;BME280;66332;50.436;15.378;2023-02-11T22:43:10;99815.06;;;3.33;93.49
77279;BME280;66332;50.436;15.378;2023-02-11T22:52:41;99820.00;;;3.24;93.39
